Oquinn, Texas
Current Conditions -  °F | °C
As of 6:35 AM on Monday 20 Oct 2014 (Local Time) from K3T5 Reporting Station
Haze Haze  
Wind Chill: 64°   Ceiling: Unl
Heat Index: 64°   Visibility: 4mi
Dew Point: 63°   Wind: 3mph
Humidity: 98%   Direction: 350°N
Pressure: 30.01"   Gusts: NA
Location:  29.8569°N, 96.9311°W
Report Text: K3T5 201135Z AUTO 35003KT 4SM BR CLR 18/17 A3001 RMK AO2 T01760173
Loading
Personal Weather Stations






























Interactive Weather Map
Tropical Storm Tracking
New forecast layout! Learn more

10-Day Weather Forecast

Advertisements
Track Severe Weather on mobile